This is the latest recevied weather packets stored in our database for station/object K4JOZ. If no packets are shown the sender has not sent any weather packets the latest 1 day(s).
| Time | Temp. | Humidity | Pressure | Rain* | Wind** | Luminosity | Snow |
|---|---|---|---|---|---|---|---|
| 1778048569 | 15° C | 22% | 1008.6 hPa | 0 mm | 0 m/s | - | - |
| 1778047669 | 14.44° C | 21% | 1008.5 hPa | 0 mm | 0.89 m/s, 230° | - | - |
| 1778046769 | 14.44° C | 18% | 1008.8 hPa | 0 mm | 0 m/s | - | - |
| 1778045869 | 14.44° C | 19% | 1009 hPa | 0 mm | 0.45 m/s, 231° | - | - |
| 1778044969 | 14.44° C | 19% | 1008.6 hPa | 0 mm | 0.45 m/s, 230° | - | - |
| 1778044069 | 14.44° C | 16% | 1008.8 hPa | 0 mm | 0.89 m/s, 230° | - | - |
| 1778043169 | 14.44° C | 17% | 1009.2 hPa | 0 mm | 0.89 m/s, 230° | - | - |
| 1778042269 | 14.44° C | 16% | 1009.3 hPa | 0 mm | 0 m/s | - | - |
| 1778041369 | 13.89° C | 16% | 1009.5 hPa | 0 mm | 0.45 m/s, 254° | - | - |
| 1778040469 | 13.33° C | 19% | 1009.5 hPa | 0 mm | 0 m/s | - | - |
| 1778039569 | 12.78° C | 20% | 1009.4 hPa | 0 mm | 0.89 m/s, 254° | - | - |
| 1778038669 | 12.78° C | 27% | 1009.3 hPa | 0 mm | 0 m/s | - | - |
| 1778037769 | 12.78° C | 39% | 1009.2 hPa | 0 mm | 0 m/s | - | - |
| 1778036869 | 13.33° C | 42% | 1009 hPa | 0 mm | 0.45 m/s, 254° | - | - |
| 1778035969 | 13.89° C | 46% | 1008.9 hPa | 0 mm | 0.45 m/s, 254° | - | - |
| 1778035069 | 14.44° C | 54% | 1008.9 hPa | 0 mm | 0.45 m/s, 254° | - | - |
| 1778034169 | 15° C | 58% | 1008.8 hPa | 0 mm | 0 m/s | - | - |
| 1778033269 | 15.56° C | 63% | 1008.6 hPa | 0 mm | 0.45 m/s, 254° | - | - |
| 1778032373 | 16.11° C | 66% | 1008.3 hPa | 0 mm | 0 m/s | - | - |
| 1778031469 | 17.22° C | 68% | 1008.1 hPa | 0 mm | 0 m/s | - | - |
| 1778030569 | 17.78° C | 67% | 1008.2 hPa | 0 mm | 0 m/s | - | - |
| 1778029669 | 18.33° C | 68% | 1008.5 hPa | 0 mm | 0.45 m/s, 254° | - | - |
| 1778028769 | 18.89° C | 68% | 1008.6 hPa | 0 mm | 0.45 m/s, 254° | - | - |
| 1778027869 | 19.44° C | 69% | 1008.3 hPa | 0 mm | 0.45 m/s, 250° | - | - |
| 1778026969 | 20° C | 68% | 1008.4 hPa | 0 mm | 0 m/s | - | - |
* Rain latest hour (hover to see other rain measurements)
** Current wind speed in m/s (hover to see current wind gust speed)